Time;durP1;ratioP1;P1;durP2;ratioP2;P2;SDS_P1;SDS_P2;PMS_P1;PMS_P2;Temp;Humidity;BMP_temperature;BMP_pressure;BME280_temperature;BME280_humidity;BME280_pressure;Samples;Min_cycle;Max_cycle;Signal;HPM_P1;HPM_P2
2022/10/10 00:02:09;;;;;;;8.48;4.47;;;;;;;;;;5028849;28;20127;-66
2022/10/10 00:04:34;;;;;;;7.28;4.43;;;;;;;;;;5040030;28;20122;-62
2022/10/10 00:07:00;;;;;;;9.13;4.63;;;;;;;;;;5035178;28;20469;-63
2022/10/10 00:09:25;;;;;;;8.48;4.90;;;;;;;;;;5051855;28;20028;-62
2022/10/10 00:11:50;;;;;;;9.75;5.00;;;;;;;;;;5048844;28;20048;-63
2022/10/10 00:14:16;;;;;;;7.88;4.97;;;;;;;;;;5052075;28;20089;-62
2022/10/10 00:16:41;;;;;;;11.02;5.32;;;;;;;;;;5014626;28;20331;-62
2022/10/10 00:19:07;;;;;;;9.13;5.28;;;;;;;;;;5047799;28;20129;-61
2022/10/10 00:21:32;;;;;;;11.93;5.25;;;;;;;;;;5048309;28;20092;-64
2022/10/10 00:23:59;;;;;;;8.20;4.80;;;;;;;;;;5050279;28;20111;-63
2022/10/10 00:26:25;;;;;;;8.77;5.38;;;;;;;;;;5049580;28;20033;-62
2022/10/10 00:28:50;;;;;;;11.18;5.32;;;;;;;;;;5049734;28;20132;-63
2022/10/10 00:31:15;;;;;;;7.07;4.63;;;;;;;;;;5050758;28;20029;-62
2022/10/10 00:33:41;;;;;;;9.13;5.25;;;;;;;;;;5047634;28;20032;-62
2022/10/10 00:36:06;;;;;;;9.30;4.97;;;;;;;;;;5047230;28;20098;-63
2022/10/10 00:38:32;;;;;;;10.23;4.63;;;;;;;;;;5038383;28;20072;-63
2022/10/10 00:40:57;;;;;;;9.85;4.88;;;;;;;;;;5035978;28;20029;-63
2022/10/10 00:43:25;;;;;;;10.20;5.03;;;;;;;;;;5047040;28;20100;-62
2022/10/10 00:45:52;;;;;;;8.55;4.65;;;;;;;;;;5049275;28;20033;-63
2022/10/10 00:48:30;;;;;;;7.82;4.57;;;;;;;;;;5049685;28;20044;-61
2022/10/10 00:51:03;;;;;;;8.25;4.68;;;;;;;;;;5042437;28;20049;-63
2022/10/10 00:53:37;;;;;;;9.02;5.10;;;;;;;;;;5042927;28;20029;-63
2022/10/10 00:56:04;;;;;;;7.88;4.22;;;;;;;;;;5040537;28;20033;-61
2022/10/10 00:58:32;;;;;;;7.32;4.28;;;;;;;;;;5031220;28;20087;-62
2022/10/10 01:00:57;;;;;;;7.45;4.50;;;;;;;;;;5036473;28;20029;-62
2022/10/10 01:03:23;;;;;;;7.35;3.92;;;;;;;;;;5043287;28;20599;-62
2022/10/10 01:05:49;;;;;;;8.13;4.70;;;;;;;;;;5036123;28;20033;-62
2022/10/10 01:08:16;;;;;;;7.82;4.70;;;;;;;;;;5041054;28;20049;-62
2022/10/10 01:11:06;;;;;;;7.68;4.22;;;;;;;;;;5049912;28;20029;-63
2022/10/10 01:13:44;;;;;;;6.25;4.22;;;;;;;;;;5033954;28;20021;-63
2022/10/10 01:16:20;;;;;;;7.28;4.25;;;;;;;;;;5044773;28;20048;-63
2022/10/10 01:19:12;;;;;;;5.85;4.00;;;;;;;;;;5038176;28;20036;-63
2022/10/10 01:22:02;;;;;;;6.25;4.03;;;;;;;;;;5025883;28;20049;-63
2022/10/10 01:24:55;;;;;;;6.20;4.20;;;;;;;;;;5030538;28;20437;-64
2022/10/10 01:27:30;;;;;;;6.40;4.18;;;;;;;;;;5039228;28;20052;-63
2022/10/10 01:30:18;;;;;;;7.43;4.15;;;;;;;;;;5014641;28;20038;-63
2022/10/10 01:32:50;;;;;;;9.50;4.80;;;;;;;;;;5051012;28;20482;-61
2022/10/10 01:35:46;;;;;;;7.40;4.70;;;;;;;;;;5034062;28;20033;-62
2022/10/10 01:38:36;;;;;;;7.20;4.30;;;;;;;;;;5053543;28;20029;-63
2022/10/10 01:41:10;;;;;;;8.25;4.30;;;;;;;;;;5050341;28;20442;-63
2022/10/10 01:43:36;;;;;;;7.82;3.83;;;;;;;;;;5033997;28;20029;-63
2022/10/10 01:46:10;;;;;;;6.82;4.28;;;;;;;;;;5023158;28;20038;-63
2022/10/10 01:48:36;;;;;;;9.88;4.40;;;;;;;;;;5014273;28;20036;-63
2022/10/10 01:51:19;;;;;;;6.85;4.13;;;;;;;;;;5027570;28;20029;-63
2022/10/10 01:54:16;;;;;;;7.82;4.32;;;;;;;;;;5044376;28;20037;-62
2022/10/10 01:57:15;;;;;;;7.20;4.18;;;;;;;;;;5022989;28;20050;-63
2022/10/10 02:00:22;;;;;;;8.60;3.88;;;;;;;;;;5034878;28;20067;-62
2022/10/10 02:03:07;;;;;;;9.10;3.97;;;;;;;;;;4987015;28;20034;-62
2022/10/10 02:05:46;;;;;;;6.80;3.92;;;;;;;;;;4988690;28;20034;-62
2022/10/10 02:08:22;;;;;;;8.05;4.13;;;;;;;;;;4990643;28;20050;-62
2022/10/10 02:10:58;;;;;;;6.72;4.20;;;;;;;;;;4991362;28;20499;-63
2022/10/10 02:13:29;;;;;;;7.47;4.00;;;;;;;;;;4992041;28;20050;-62
2022/10/10 02:15:57;;;;;;;7.80;3.85;;;;;;;;;;4989063;28;20042;-62
2022/10/10 02:18:27;;;;;;;5.93;3.92;;;;;;;;;;4989560;28;20483;-62
2022/10/10 02:20:54;;;;;;;8.50;4.20;;;;;;;;;;4989681;28;20043;-63
2022/10/10 02:23:21;;;;;;;8.20;3.88;;;;;;;;;;4987958;28;20038;-62
2022/10/10 02:25:51;;;;;;;6.57;3.67;;;;;;;;;;4989085;28;20038;-61
2022/10/10 02:28:24;;;;;;;7.25;4.10;;;;;;;;;;4994549;28;20046;-64
2022/10/10 02:30:54;;;;;;;8.23;4.40;;;;;;;;;;5011191;28;20045;-63
2022/10/10 02:33:25;;;;;;;8.27;4.28;;;;;;;;;;5017110;28;20049;-63
2022/10/10 02:35:52;;;;;;;8.05;4.13;;;;;;;;;;5032804;28;20381;-62
2022/10/10 02:38:19;;;;;;;7.93;4.05;;;;;;;;;;5022492;28;20095;-62
2022/10/10 02:40:47;;;;;;;11.95;4.75;;;;;;;;;;5031381;28;20029;-61
2022/10/10 02:43:14;;;;;;;7.88;4.03;;;;;;;;;;5022902;28;20037;-62
2022/10/10 02:45:40;;;;;;;6.65;3.58;;;;;;;;;;5013571;28;20113;-64
2022/10/10 02:48:06;;;;;;;6.10;4.07;;;;;;;;;;5028166;28;20041;-62
2022/10/10 02:50:32;;;;;;;6.70;3.72;;;;;;;;;;5032243;28;20080;-61
2022/10/10 02:52:59;;;;;;;9.27;3.80;;;;;;;;;;5027724;28;20033;-64
2022/10/10 02:55:24;;;;;;;6.75;3.92;;;;;;;;;;5030936;28;20424;-63
2022/10/10 02:57:50;;;;;;;6.07;3.80;;;;;;;;;;5021074;28;20472;-62
2022/10/10 03:00:17;;;;;;;5.93;3.70;;;;;;;;;;5012193;28;20030;-61
2022/10/10 03:02:42;;;;;;;6.30;3.80;;;;;;;;;;5021320;28;20039;-63
2022/10/10 03:05:08;;;;;;;7.13;3.72;;;;;;;;;;5024549;28;20048;-63
2022/10/10 03:07:34;;;;;;;9.07;4.10;;;;;;;;;;5040905;28;20396;-61
2022/10/10 03:09:59;;;;;;;6.47;3.95;;;;;;;;;;5016036;28;20098;-62
2022/10/10 03:12:25;;;;;;;5.95;3.63;;;;;;;;;;5022449;28;20451;-62
2022/10/10 03:14:50;;;;;;;6.30;3.60;;;;;;;;;;5012937;28;20036;-62
2022/10/10 03:17:16;;;;;;;7.22;3.80;;;;;;;;;;5043354;28;20202;-63
2022/10/10 03:19:41;;;;;;;6.97;3.67;;;;;;;;;;5022041;28;20056;-63
2022/10/10 03:22:06;;;;;;;7.63;3.97;;;;;;;;;;5028015;28;20129;-62
2022/10/10 03:24:32;;;;;;;7.95;3.70;;;;;;;;;;5028333;28;20048;-62
2022/10/10 03:26:57;;;;;;;5.10;3.53;;;;;;;;;;5032878;28;20033;-63
2022/10/10 03:29:22;;;;;;;5.10;3.65;;;;;;;;;;5016505;28;20092;-62
2022/10/10 03:31:49;;;;;;;5.85;3.50;;;;;;;;;;5046357;28;20053;-62
2022/10/10 03:34:14;;;;;;;6.03;3.47;;;;;;;;;;5050123;28;20039;-62
2022/10/10 03:36:39;;;;;;;7.05;3.30;;;;;;;;;;5040187;28;20112;-63
2022/10/10 03:39:06;;;;;;;5.97;3.70;;;;;;;;;;5024110;28;20386;-62
2022/10/10 03:41:32;;;;;;;6.25;3.88;;;;;;;;;;5032661;28;20393;-62
2022/10/10 03:43:57;;;;;;;8.07;3.78;;;;;;;;;;5039878;28;20577;-63
2022/10/10 03:46:23;;;;;;;11.82;4.07;;;;;;;;;;5024880;28;20389;-62
2022/10/10 03:48:48;;;;;;;8.07;4.05;;;;;;;;;;5028552;28;20116;-63
2022/10/10 03:51:14;;;;;;;7.45;3.97;;;;;;;;;;5028888;28;20042;-62
2022/10/10 03:53:40;;;;;;;8.27;3.90;;;;;;;;;;5036577;28;20041;-63
2022/10/10 03:56:06;;;;;;;7.47;3.90;;;;;;;;;;5018360;28;20100;-63
2022/10/10 03:58:32;;;;;;;8.20;3.80;;;;;;;;;;5018450;28;20113;-62
2022/10/10 04:01:00;;;;;;;8.82;4.18;;;;;;;;;;5018115;28;20422;-63
2022/10/10 04:03:26;;;;;;;6.63;4.20;;;;;;;;;;5027966;28;20033;-62
2022/10/10 04:05:52;;;;;;;8.07;4.28;;;;;;;;;;5036013;28;20080;-62
2022/10/10 04:08:17;;;;;;;6.70;3.85;;;;;;;;;;5025452;28;20022;-62
2022/10/10 04:10:46;;;;;;;7.40;4.13;;;;;;;;;;5034297;28;20033;-62
2022/10/10 04:13:12;;;;;;;7.60;4.30;;;;;;;;;;5046712;28;20059;-62
2022/10/10 04:15:38;;;;;;;8.35;4.22;;;;;;;;;;5039334;28;20447;-62
2022/10/10 04:18:03;;;;;;;6.53;3.90;;;;;;;;;;5048916;28;20513;-63
2022/10/10 04:20:28;;;;;;;8.82;4.25;;;;;;;;;;5041040;28;20505;-62
2022/10/10 04:22:54;;;;;;;8.35;4.07;;;;;;;;;;5051935;28;20359;-63
2022/10/10 04:25:19;;;;;;;6.50;4.03;;;;;;;;;;5049533;28;20025;-62
2022/10/10 04:27:45;;;;;;;6.88;4.00;;;;;;;;;;5050067;28;20029;-63
2022/10/10 04:30:11;;;;;;;6.45;4.15;;;;;;;;;;5047702;28;20059;-62
2022/10/10 04:32:37;;;;;;;8.23;4.10;;;;;;;;;;5038226;28;20056;-62
2022/10/10 04:35:03;;;;;;;7.88;4.07;;;;;;;;;;5038339;28;20450;-63
2022/10/10 04:37:28;;;;;;;7.95;4.00;;;;;;;;;;5025375;28;20038;-61
2022/10/10 04:39:54;;;;;;;9.13;4.53;;;;;;;;;;5031356;28;20099;-62
2022/10/10 04:42:19;;;;;;;7.93;4.22;;;;;;;;;;5048987;28;20041;-62
2022/10/10 04:44:45;;;;;;;6.95;4.40;;;;;;;;;;5039708;28;20044;-63
2022/10/10 04:47:12;;;;;;;6.85;4.38;;;;;;;;;;5044627;28;20116;-63
2022/10/10 04:49:37;;;;;;;7.22;4.38;;;;;;;;;;5039973;28;20029;-61
2022/10/10 04:52:03;;;;;;;6.82;4.63;;;;;;;;;;5028558;28;20033;-64
2022/10/10 04:54:28;;;;;;;9.30;4.78;;;;;;;;;;5028177;28;20060;-63
2022/10/10 04:56:54;;;;;;;8.40;5.07;;;;;;;;;;5023845;28;20072;-63
2022/10/10 04:59:19;;;;;;;10.32;5.40;;;;;;;;;;5044535;28;20224;-62
2022/10/10 05:01:45;;;;;;;10.95;5.45;;;;;;;;;;5050450;28;20040;-62
2022/10/10 05:04:11;;;;;;;7.85;4.57;;;;;;;;;;5053261;28;20029;-62
2022/10/10 05:06:37;;;;;;;6.80;4.40;;;;;;;;;;5043758;28;20025;-62
2022/10/10 05:09:02;;;;;;;11.32;4.70;;;;;;;;;;5053271;28;20060;-63
2022/10/10 05:11:28;;;;;;;6.25;3.88;;;;;;;;;;5052112;28;20041;-61
2022/10/10 05:13:53;;;;;;;8.02;4.30;;;;;;;;;;5049580;28;20036;-62
2022/10/10 05:16:18;;;;;;;7.00;4.50;;;;;;;;;;5044553;28;20037;-62
2022/10/10 05:18:44;;;;;;;10.50;4.88;;;;;;;;;;5055092;28;20033;-62
2022/10/10 05:21:10;;;;;;;9.23;4.28;;;;;;;;;;5046981;28;20054;-62
2022/10/10 05:23:37;;;;;;;7.03;4.15;;;;;;;;;;5053340;28;20090;-62
2022/10/10 05:26:03;;;;;;;7.85;4.65;;;;;;;;;;5038259;28;20044;-63
2022/10/10 05:28:28;;;;;;;7.53;4.45;;;;;;;;;;5030916;28;20069;-67
2022/10/10 05:30:54;;;;;;;9.13;4.72;;;;;;;;;;5022752;28;20110;-66
2022/10/10 05:33:19;;;;;;;9.68;5.28;;;;;;;;;;5045938;28;20805;-70
2022/10/10 05:35:45;;;;;;;10.35;5.78;;;;;;;;;;5053110;28;20033;-70
2022/10/10 05:38:10;;;;;;;7.32;4.72;;;;;;;;;;5047008;28;20047;-70
2022/10/10 05:40:39;;;;;;;9.57;5.00;;;;;;;;;;5052359;28;20087;-71
2022/10/10 05:43:04;;;;;;;8.18;5.05;;;;;;;;;;5052217;28;20039;-71
2022/10/10 05:45:30;;;;;;;10.40;5.65;;;;;;;;;;5033670;28;20037;-69
2022/10/10 05:47:55;;;;;;;11.93;5.63;;;;;;;;;;5042766;28;20104;-71
2022/10/10 05:50:34;;;;;;;10.50;5.43;;;;;;;;;;5033351;28;20036;-72
2022/10/10 05:53:00;;;;;;;9.63;4.95;;;;;;;;;;5016739;28;20125;-69
2022/10/10 05:55:26;;;;;;;9.07;5.03;;;;;;;;;;5024904;28;20115;-71
2022/10/10 05:57:52;;;;;;;9.90;4.72;;;;;;;;;;5041119;28;20029;-72
2022/10/10 06:00:17;;;;;;;8.60;5.22;;;;;;;;;;5039990;28;20079;-72
2022/10/10 06:02:43;;;;;;;8.75;5.28;;;;;;;;;;5037596;28;20450;-71
2022/10/10 06:05:08;;;;;;;10.50;5.18;;;;;;;;;;5035419;28;20021;-70
2022/10/10 06:07:34;;;;;;;8.48;5.03;;;;;;;;;;5048715;28;20508;-72
2022/10/10 06:09:59;;;;;;;11.52;5.55;;;;;;;;;;5051078;28;20037;-71
2022/10/10 06:12:25;;;;;;;10.63;5.43;;;;;;;;;;5053210;28;20423;-71
2022/10/10 06:14:50;;;;;;;9.73;5.07;;;;;;;;;;5051522;28;20048;-71
2022/10/10 06:17:15;;;;;;;10.55;5.32;;;;;;;;;;5052738;28;20051;-71
2022/10/10 06:19:41;;;;;;;12.00;5.68;;;;;;;;;;5021717;28;20474;-71
2022/10/10 06:22:06;;;;;;;9.10;5.25;;;;;;;;;;5038061;28;20052;-67
2022/10/10 06:24:31;;;;;;;9.27;5.18;;;;;;;;;;5048816;28;20032;-70
2022/10/10 06:26:57;;;;;;;11.63;5.35;;;;;;;;;;5052560;28;20465;-72
2022/10/10 06:29:22;;;;;;;12.27;5.32;;;;;;;;;;5052667;28;20066;-70
2022/10/10 06:31:48;;;;;;;14.38;6.30;;;;;;;;;;5044966;28;20044;-70
2022/10/10 06:34:13;;;;;;;12.93;5.90;;;;;;;;;;5052679;28;20029;-70
2022/10/10 06:36:38;;;;;;;9.63;5.55;;;;;;;;;;5022877;28;20034;-68
2022/10/10 06:39:04;;;;;;;16.63;5.32;;;;;;;;;;5030302;28;20037;-66
2022/10/10 06:41:29;;;;;;;13.45;5.72;;;;;;;;;;5051050;28;20033;-68
2022/10/10 06:43:55;;;;;;;11.02;5.90;;;;;;;;;;5052064;28;20044;-68
2022/10/10 06:46:21;;;;;;;10.02;5.50;;;;;;;;;;5045807;28;20041;-70
2022/10/10 06:48:46;;;;;;;10.50;5.63;;;;;;;;;;5049946;28;20029;-70
2022/10/10 06:51:16;;;;;;;10.07;6.15;;;;;;;;;;5044487;28;20067;-66
2022/10/10 06:53:43;;;;;;;14.00;6.17;;;;;;;;;;5030532;28;20478;-70
2022/10/10 06:56:16;;;;;;;8.32;5.60;;;;;;;;;;5036608;28;20090;-70
2022/10/10 06:58:43;;;;;;;10.23;5.68;;;;;;;;;;5031711;28;20121;-71
2022/10/10 07:01:09;;;;;;;9.90;5.07;;;;;;;;;;5029163;28;20076;-71
2022/10/10 07:03:34;;;;;;;9.48;5.50;;;;;;;;;;5052602;28;20087;-70
2022/10/10 07:06:01;;;;;;;8.77;5.20;;;;;;;;;;5042120;28;20041;-71
2022/10/10 07:08:27;;;;;;;12.30;5.63;;;;;;;;;;5052142;28;20052;-70
2022/10/10 07:10:53;;;;;;;9.32;5.57;;;;;;;;;;5030717;28;20041;-70
2022/10/10 07:13:19;;;;;;;9.07;5.70;;;;;;;;;;5031401;28;20087;-70
2022/10/10 07:15:44;;;;;;;10.90;5.03;;;;;;;;;;5032492;28;20053;-71
2022/10/10 07:18:10;;;;;;;12.68;5.35;;;;;;;;;;5049966;28;20040;-71
2022/10/10 07:20:36;;;;;;;10.35;5.43;;;;;;;;;;5048031;28;20323;-71
2022/10/10 07:23:03;;;;;;;11.05;5.63;;;;;;;;;;5038549;28;20026;-71
2022/10/10 07:25:28;;;;;;;14.85;5.35;;;;;;;;;;5040415;28;20425;-70
2022/10/10 07:27:55;;;;;;;9.38;5.50;;;;;;;;;;5021282;28;20033;-71
2022/10/10 07:30:21;;;;;;;15.65;5.25;;;;;;;;;;5042234;28;20037;-71
2022/10/10 07:32:46;;;;;;;9.48;5.68;;;;;;;;;;5052168;28;20592;-71
2022/10/10 07:35:12;;;;;;;13.65;6.03;;;;;;;;;;5046041;28;20393;-72
2022/10/10 07:37:38;;;;;;;21.42;6.35;;;;;;;;;;5051762;28;20057;-70
2022/10/10 07:40:05;;;;;;;18.05;5.90;;;;;;;;;;5037200;28;20029;-72
2022/10/10 07:42:30;;;;;;;13.57;5.30;;;;;;;;;;5049350;28;20040;-71
2022/10/10 07:44:55;;;;;;;10.23;5.63;;;;;;;;;;5043310;28;20028;-71
2022/10/10 07:47:21;;;;;;;10.90;5.30;;;;;;;;;;5048833;28;20060;-71
2022/10/10 07:49:46;;;;;;;12.65;5.65;;;;;;;;;;5050427;28;20136;-71
2022/10/10 07:52:12;;;;;;;10.27;5.60;;;;;;;;;;5047782;28;20458;-71
2022/10/10 07:54:37;;;;;;;12.15;5.43;;;;;;;;;;5050056;28;20028;-72
2022/10/10 07:57:03;;;;;;;15.25;5.15;;;;;;;;;;5044688;28;20044;-70
2022/10/10 07:59:28;;;;;;;9.30;5.15;;;;;;;;;;5044960;28;20029;-73
2022/10/10 08:01:54;;;;;;;9.70;5.03;;;;;;;;;;5019660;28;20474;-71
2022/10/10 08:04:19;;;;;;;11.07;4.38;;;;;;;;;;5027736;28;20367;-70
2022/10/10 08:06:45;;;;;;;10.10;4.72;;;;;;;;;;5045457;28;20108;-72
2022/10/10 08:09:10;;;;;;;10.68;4.70;;;;;;;;;;5049262;28;20083;-69
2022/10/10 08:11:35;;;;;;;8.98;4.78;;;;;;;;;;5048505;28;20052;-72
2022/10/10 08:14:01;;;;;;;7.97;4.70;;;;;;;;;;5048890;28;20043;-71
2022/10/10 08:16:26;;;;;;;10.48;4.50;;;;;;;;;;5047795;28;20360;-69
2022/10/10 08:18:52;;;;;;;13.50;4.55;;;;;;;;;;5036572;28;20538;-73
2022/10/10 08:21:17;;;;;;;9.18;4.00;;;;;;;;;;5038497;28;20603;-70
2022/10/10 08:23:44;;;;;;;9.60;4.00;;;;;;;;;;5020205;28;20127;-65
2022/10/10 08:26:11;;;;;;;9.98;3.38;;;;;;;;;;5036690;28;20059;-69
2022/10/10 08:28:38;;;;;;;7.30;3.78;;;;;;;;;;5036702;28;20541;-71
2022/10/10 08:31:16;;;;;;;6.38;3.42;;;;;;;;;;5037613;28;20112;-71
2022/10/10 08:33:42;;;;;;;7.75;3.53;;;;;;;;;;5030306;28;20041;-71
2022/10/10 08:36:12;;;;;;;7.57;3.38;;;;;;;;;;5030200;28;20060;-70
2022/10/10 08:38:40;;;;;;;6.75;2.97;;;;;;;;;;5033921;28;20126;-69
2022/10/10 08:41:10;;;;;;;8.23;3.38;;;;;;;;;;5035443;28;20021;-70
2022/10/10 08:44:06;;;;;;;7.93;3.70;;;;;;;;;;5042155;28;20040;-69
2022/10/10 08:46:38;;;;;;;8.18;3.40;;;;;;;;;;5048508;28;20029;-71
2022/10/10 08:49:46;;;;;;;9.73;3.45;;;;;;;;;;5055357;28;20021;-70
2022/10/10 08:52:30;;;;;;;5.93;3.17;;;;;;;;;;5023285;28;20061;-68
2022/10/10 08:54:57;;;;;;;6.53;3.50;;;;;;;;;;5055125;28;20063;-71
2022/10/10 08:57:32;;;;;;;17.00;3.75;;;;;;;;;;5051285;28;20141;-70
2022/10/10 09:00:06;;;;;;;6.65;3.15;;;;;;;;;;5053185;28;20478;-69
2022/10/10 09:02:37;;;;;;;8.07;3.40;;;;;;;;;;5033421;28;20041;-69
2022/10/10 09:05:04;;;;;;;9.32;3.60;;;;;;;;;;5054740;28;20036;-70
2022/10/10 09:08:01;;;;;;;7.22;3.60;;;;;;;;;;5052673;28;20666;-72
2022/10/10 09:10:35;;;;;;;7.35;3.70;;;;;;;;;;5013538;28;20046;-71
2022/10/10 09:13:18;;;;;;;6.40;3.33;;;;;;;;;;5038983;28;20036;-69
2022/10/10 09:15:54;;;;;;;7.75;3.50;;;;;;;;;;5045539;28;20048;-69
2022/10/10 09:18:31;;;;;;;5.70;3.28;;;;;;;;;;5030515;28;20032;-72
2022/10/10 09:21:16;;;;;;;10.52;3.78;;;;;;;;;;5034201;28;20056;-70
2022/10/10 09:23:58;;;;;;;7.57;3.33;;;;;;;;;;5016734;28;20044;-69
2022/10/10 09:26:31;;;;;;;5.72;3.08;;;;;;;;;;5026461;28;20021;-70
2022/10/10 09:29:25;;;;;;;9.50;3.35;;;;;;;;;;5054282;28;20037;-70
2022/10/10 09:31:56;;;;;;;11.38;3.28;;;;;;;;;;5040666;28;20078;-69
2022/10/10 09:34:27;;;;;;;;;;;;;;;;;;5051096;28;20397;-69
2022/10/10 09:36:53;;;;;;;6.78;2.83;;;;;;;;;;5054346;28;19915;-69
2022/10/10 09:39:28;;;;;;;11.70;3.22;;;;;;;;;;5051953;28;20107;-66
2022/10/10 09:41:59;;;;;;;8.48;2.80;;;;;;;;;;5047816;28;20051;-67
2022/10/10 09:44:25;;;;;;;5.90;2.53;;;;;;;;;;5031900;28;20033;-68
2022/10/10 09:46:52;;;;;;;9.68;2.90;;;;;;;;;;5028113;28;20412;-69
2022/10/10 09:49:19;;;;;;;7.10;2.60;;;;;;;;;;5052530;28;20166;-70
2022/10/10 09:51:46;;;;;;;6.43;2.60;;;;;;;;;;5043771;28;20068;-69
2022/10/10 09:54:14;;;;;;;7.22;2.90;;;;;;;;;;5047950;28;20103;-68
2022/10/10 09:56:44;;;;;;;11.27;2.60;;;;;;;;;;5034488;28;20064;-71
2022/10/10 09:59:41;;;;;;;9.38;3.15;;;;;;;;;;5027127;28;20137;-67
2022/10/10 10:02:21;;;;;;;8.55;2.78;;;;;;;;;;5014023;28;20066;-70
2022/10/10 10:04:47;;;;;;;10.13;2.90;;;;;;;;;;5047022;28;20390;-71
2022/10/10 10:07:30;;;;;;;9.07;2.92;;;;;;;;;;5050365;28;20037;-69
2022/10/10 10:09:58;;;;;;;8.02;2.40;;;;;;;;;;5030561;28;20053;-68
2022/10/10 10:12:36;;;;;;;11.90;3.00;;;;;;;;;;5031238;28;20037;-68
2022/10/10 10:15:05;;;;;;;7.20;2.30;;;;;;;;;;5033988;28;20052;-70
2022/10/10 10:17:31;;;;;;;5.82;2.40;;;;;;;;;;5030447;28;20029;-71
2022/10/10 10:19:56;;;;;;;7.45;2.47;;;;;;;;;;5053064;28;20144;-66
2022/10/10 10:22:36;;;;;;;6.03;2.95;;;;;;;;;;5024011;28;20066;-65
2022/10/10 10:25:37;;;;;;;7.87;2.73;;;;;;;;;;5019594;28;20033;-66
2022/10/10 10:28:14;;;;;;;7.00;2.80;;;;;;;;;;5029724;28;20493;-71
2022/10/10 10:30:41;;;;;;;6.72;2.42;;;;;;;;;;5028077;28;20049;-71
2022/10/10 10:33:17;;;;;;;6.82;2.78;;;;;;;;;;5051491;28;20159;-71
2022/10/10 10:35:50;;;;;;;7.53;2.67;;;;;;;;;;5034265;28;20044;-72
2022/10/10 10:38:15;;;;;;;7.35;2.60;;;;;;;;;;5049364;28;20033;-71
2022/10/10 10:40:49;;;;;;;6.45;2.70;;;;;;;;;;5049236;28;20473;-70
2022/10/10 10:43:36;;;;;;;8.98;3.13;;;;;;;;;;5038264;28;20040;-70
2022/10/10 10:46:26;;;;;;;9.80;2.83;;;;;;;;;;5038161;28;20048;-69
2022/10/10 10:49:01;;;;;;;12.40;2.63;;;;;;;;;;5052994;28;20112;-70
2022/10/10 10:51:34;;;;;;;8.95;2.55;;;;;;;;;;5035592;28;20032;-67
2022/10/10 10:54:18;;;;;;;9.73;2.90;;;;;;;;;;5052869;28;20108;-69
2022/10/10 10:57:06;;;;;;;7.60;2.85;;;;;;;;;;5046360;28;20065;-70
2022/10/10 10:59:53;;;;;;;8.88;2.83;;;;;;;;;;5048515;28;20195;-69
2022/10/10 11:02:24;;;;;;;7.13;2.60;;;;;;;;;;5048062;28;20025;-68
2022/10/10 11:05:07;;;;;;;7.95;2.60;;;;;;;;;;5040747;28;20540;-69
2022/10/10 11:08:04;;;;;;;6.90;3.00;;;;;;;;;;5045545;28;20482;-69
2022/10/10 11:10:55;;;;;;;5.28;2.35;;;;;;;;;;5018324;28;20026;-69
2022/10/10 11:13:30;;;;;;;7.50;2.50;;;;;;;;;;5051095;28;20082;-69
2022/10/10 11:16:01;;;;;;;9.55;2.60;;;;;;;;;;5040230;28;20065;-68
2022/10/10 11:18:45;;;;;;;5.50;2.42;;;;;;;;;;5050341;28;20036;-68
2022/10/10 11:21:33;;;;;;;7.88;2.58;;;;;;;;;;5043978;28;20079;-70
2022/10/10 11:24:09;;;;;;;7.45;2.80;;;;;;;;;;5049225;28;20090;-68
2022/10/10 11:26:43;;;;;;;6.40;2.60;;;;;;;;;;5023860;28;20025;-68
2022/10/10 11:29:22;;;;;;;5.90;2.42;;;;;;;;;;5050963;28;20106;-68
2022/10/10 11:31:54;;;;;;;6.85;2.05;;;;;;;;;;5049737;28;20491;-69
2022/10/10 11:34:32;;;;;;;8.57;2.85;;;;;;;;;;5051271;28;20025;-67
2022/10/10 11:37:05;;;;;;;7.13;2.33;;;;;;;;;;5045097;28;20076;-69
2022/10/10 11:39:35;;;;;;;6.60;2.20;;;;;;;;;;5039280;28;20393;-70
2022/10/10 11:42:19;;;;;;;6.68;2.33;;;;;;;;;;5033092;28;20104;-69
2022/10/10 11:44:55;;;;;;;11.23;2.40;;;;;;;;;;5041879;28;20028;-71
2022/10/10 11:47:41;;;;;;;10.77;2.92;;;;;;;;;;5048288;28;20035;-71
2022/10/10 11:50:26;;;;;;;8.35;2.90;;;;;;;;;;5029486;28;20087;-72
2022/10/10 11:53:06;;;;;;;6.28;2.63;;;;;;;;;;5031907;28;20030;-70
2022/10/10 11:55:44;;;;;;;5.85;2.30;;;;;;;;;;5047296;28;20451;-70
2022/10/10 11:58:09;;;;;;;13.98;2.90;;;;;;;;;;5049179;28;20469;-71
2022/10/10 12:00:51;;;;;;;7.47;2.53;;;;;;;;;;5022014;28;20048;-70
2022/10/10 12:03:17;;;;;;;9.02;2.60;;;;;;;;;;5041044;28;20047;-68
2022/10/10 12:05:56;;;;;;;8.50;2.85;;;;;;;;;;5045732;28;20412;-71
2022/10/10 12:08:30;;;;;;;9.50;2.60;;;;;;;;;;5041015;28;20029;-70
2022/10/10 12:11:23;;;;;;;9.10;2.80;;;;;;;;;;5051718;28;20488;-71
2022/10/10 12:13:55;;;;;;;8.55;3.20;;;;;;;;;;5034255;28;20029;-72
2022/10/10 12:16:24;;;;;;;7.60;2.67;;;;;;;;;;5029959;28;20550;-70
2022/10/10 12:18:54;;;;;;;6.60;2.60;;;;;;;;;;5051481;28;20036;-71
2022/10/10 12:21:23;;;;;;;12.07;3.20;;;;;;;;;;5048679;28;20485;-72
2022/10/10 12:23:59;;;;;;;6.35;2.70;;;;;;;;;;5051323;28;20083;-71
2022/10/10 12:26:25;;;;;;;6.43;2.70;;;;;;;;;;5046161;28;20055;-72
2022/10/10 12:29:09;;;;;;;7.90;2.90;;;;;;;;;;5036753;28;20056;-71
2022/10/10 12:31:39;;;;;;;9.13;3.08;;;;;;;;;;5046552;28;20151;-72
2022/10/10 12:34:15;;;;;;;10.27;3.00;;;;;;;;;;5017297;28;20466;-71
2022/10/10 12:36:55;;;;;;;6.55;2.83;;;;;;;;;;5041219;28;20041;-71
2022/10/10 12:39:20;;;;;;;11.15;3.08;;;;;;;;;;5050124;28;20035;-69
2022/10/10 12:41:55;;;;;;;10.25;2.88;;;;;;;;;;5043062;28;20115;-70
2022/10/10 12:44:33;;;;;;;11.90;3.00;;;;;;;;;;5050437;28;20063;-70
2022/10/10 12:47:43;;;;;;;10.18;3.33;;;;;;;;;;5044341;28;20406;-71
2022/10/10 12:50:33;;;;;;;7.80;3.05;;;;;;;;;;5035660;28;20163;-71
2022/10/10 12:53:01;;;;;;;9.70;2.88;;;;;;;;;;5011444;28;20026;-70
2022/10/10 12:55:39;;;;;;;6.07;2.80;;;;;;;;;;5018193;28;20033;-70
2022/10/10 12:58:08;;;;;;;10.13;3.13;;;;;;;;;;5049784;28;20064;-75
2022/10/10 13:00:42;;;;;;;8.48;2.92;;;;;;;;;;5046064;28;20083;-70
2022/10/10 13:03:22;;;;;;;9.68;3.03;;;;;;;;;;5045357;28;20037;-70
2022/10/10 13:05:49;;;;;;;7.78;3.13;;;;;;;;;;5025794;28;20036;-71
2022/10/10 13:08:19;;;;;;;9.02;3.33;;;;;;;;;;5018862;28;20034;-68
2022/10/10 13:11:17;;;;;;;9.02;3.05;;;;;;;;;;5032407;28;20076;-64
2022/10/10 13:13:49;;;;;;;10.70;3.20;;;;;;;;;;5027664;28;20044;-64
2022/10/10 13:16:18;;;;;;;13.02;3.53;;;;;;;;;;5050761;28;20052;-68
2022/10/10 13:18:52;;;;;;;7.57;2.80;;;;;;;;;;5044323;28;20501;-65
2022/10/10 13:21:21;;;;;;;9.73;3.00;;;;;;;;;;5030209;28;20144;-65
2022/10/10 13:23:49;;;;;;;9.33;2.87;;;;;;;;;;5028632;28;20517;-66
2022/10/10 13:26:31;;;;;;;13.38;3.10;;;;;;;;;;5014949;28;20500;-69
2022/10/10 13:29:00;;;;;;;12.73;3.90;;;;;;;;;;5026370;28;20543;-64
2022/10/10 13:31:28;;;;;;;9.43;2.92;;;;;;;;;;5033444;28;20547;-65
2022/10/10 13:34:15;;;;;;;7.93;3.17;;;;;;;;;;5042291;28;20033;-66
2022/10/10 13:36:42;;;;;;;10.02;3.10;;;;;;;;;;5042879;28;20100;-65
2022/10/10 13:39:14;;;;;;;9.25;3.40;;;;;;;;;;5042614;28;20033;-64
2022/10/10 13:41:41;;;;;;;14.90;3.55;;;;;;;;;;5050803;28;20047;-65
2022/10/10 13:44:15;;;;;;;14.20;3.42;;;;;;;;;;5051563;28;20393;-66
2022/10/10 13:46:41;;;;;;;11.43;3.28;;;;;;;;;;5053972;28;20123;-66
2022/10/10 13:49:26;;;;;;;9.40;3.03;;;;;;;;;;5030439;28;20165;-70
2022/10/10 13:52:02;;;;;;;10.35;2.97;;;;;;;;;;5030078;28;20034;-70
2022/10/10 13:54:45;;;;;;;18.45;3.08;;;;;;;;;;5031961;28;20029;-70
2022/10/10 13:57:38;;;;;;;11.63;3.17;;;;;;;;;;5042566;28;20041;-68
2022/10/10 14:00:13;;;;;;;9.68;2.88;;;;;;;;;;5019055;28;20046;-68
2022/10/10 14:02:41;;;;;;;12.75;3.17;;;;;;;;;;5013393;28;20040;-69
2022/10/10 14:05:13;;;;;;;17.00;3.50;;;;;;;;;;5037680;28;20389;-68
2022/10/10 14:07:38;;;;;;;12.05;3.30;;;;;;;;;;5048135;28;20048;-68
2022/10/10 14:10:09;;;;;;;13.02;3.88;;;;;;;;;;5043983;28;20029;-69
2022/10/10 14:12:50;;;;;;;17.08;4.47;;;;;;;;;;5040131;28;20111;-71
2022/10/10 14:15:42;;;;;;;14.20;4.57;;;;;;;;;;5014536;28;20046;-70
2022/10/10 14:18:18;;;;;;;11.63;5.32;;;;;;;;;;5046199;28;20235;-71
2022/10/10 14:20:45;;;;;;;23.50;11.95;;;;;;;;;;5045913;28;20045;-71
2022/10/10 14:23:11;;;;;;;15.40;5.75;;;;;;;;;;5048777;28;20125;-71
2022/10/10 14:25:40;;;;;;;9.38;2.95;;;;;;;;;;5052730;28;20108;-70
2022/10/10 14:28:11;;;;;;;10.68;3.30;;;;;;;;;;5039135;28;20040;-71
2022/10/10 14:30:37;;;;;;;9.35;2.90;;;;;;;;;;5033658;28;20033;-72
2022/10/10 14:33:09;;;;;;;10.05;3.10;;;;;;;;;;5047199;28;20043;-73
2022/10/10 14:35:35;;;;;;;9.15;2.85;;;;;;;;;;5052618;28;20474;-71
2022/10/10 14:38:00;;;;;;;9.07;2.80;;;;;;;;;;5053248;28;20040;-72
2022/10/10 14:40:28;;;;;;;8.60;2.85;;;;;;;;;;5048824;28;20124;-72
2022/10/10 14:42:53;;;;;;;11.60;2.83;;;;;;;;;;5031469;28;20040;-68
2022/10/10 14:45:18;;;;;;;8.68;2.25;;;;;;;;;;5033481;28;20029;-67
2022/10/10 14:47:44;;;;;;;9.90;2.60;;;;;;;;;;5049094;28;20033;-67
2022/10/10 14:50:18;;;;;;;11.38;3.08;;;;;;;;;;5032797;28;20039;-68
2022/10/10 14:52:44;;;;;;;7.75;3.20;;;;;;;;;;5038852;28;20064;-67
2022/10/10 14:55:10;;;;;;;9.30;3.03;;;;;;;;;;5050357;28;20071;-67
2022/10/10 14:57:36;;;;;;;9.02;3.13;;;;;;;;;;5051395;28;20029;-68
2022/10/10 15:00:10;;;;;;;8.38;2.50;;;;;;;;;;5051666;28;20048;-67
2022/10/10 15:02:36;;;;;;;7.28;2.70;;;;;;;;;;5035610;28;20026;-68
2022/10/10 15:05:01;;;;;;;7.85;2.90;;;;;;;;;;5037338;28;20039;-68